Terminal Aerodrome Forecast
Issued by NWS Cleveland, OH

Home | Current Version | Previous Version | Text Only | Print | Product List | Glossary On
Versions: 1 2 3 4 5 6 7 8 9 10 11 12 13 14 15 16 17 18
000
FTUS41 KCLE 312300
TAFYNG
TAF
KYNG 312327Z 0100/0124 09005KT 6SM -SHRA OVC035
      TEMPO 0101/0102 4SM -SHRA BR SCT008 OVC015
     FM010200 06006KT 4SM -SHRA BR OVC015
     FM010400 VRB04KT 2SM -SHRA BR OVC008
     FM010900 36015G25KT 1 1/2SM -SHRA BR OVC007
     FM011500 35015G25KT 2SM -RASN BR OVC006=

USA.gov is the U.S. government's official web portal to all federal, state and local government web resources and services.